Time;durP1;ratioP1;P1;durP2;ratioP2;P2;SDS_P1;SDS_P2;PMS_P1;PMS_P2;Temp;Humidity;BMP_temperature;BMP_pressure;BME280_temperature;BME280_humidity;BME280_pressure;Samples;Min_cycle;Max_cycle;Signal;HPM_P1;HPM_P2
2023/06/13 00:00:05;;;;;;;7.60;6.67;;;18.60;53.60;;;;;;4976073;28;20172;-66
2023/06/13 00:02:31;;;;;;;6.40;5.80;;;18.60;54.60;;;;;;4958821;28;20173;-66
2023/06/13 00:04:57;;;;;;;6.30;5.80;;;18.60;54.60;;;;;;4976149;28;20454;-66
2023/06/13 00:07:23;;;;;;;6.53;6.03;;;18.70;55.00;;;;;;4976190;28;20182;-66
2023/06/13 00:09:49;;;;;;;7.00;6.30;;;18.60;54.60;;;;;;4989535;28;20438;-66
2023/06/13 00:12:14;;;;;;;5.63;5.23;;;18.60;55.00;;;;;;4981369;28;20545;-67
2023/06/13 00:14:40;;;;;;;6.83;6.30;;;18.60;55.20;;;;;;4976076;28;20239;-67
2023/06/13 00:17:06;;;;;;;5.87;5.37;;;18.50;56.20;;;;;;4975909;28;20196;-67
2023/06/13 00:19:31;;;;;;;6.53;5.97;;;18.40;57.70;;;;;;4975727;28;20180;-66
2023/06/13 00:21:58;;;;;;;6.50;5.90;;;18.30;57.90;;;;;;4976118;28;20416;-67
2023/06/13 00:24:23;;;;;;;8.23;6.40;;;18.30;57.10;;;;;;4976249;28;20287;-67
2023/06/13 00:26:49;;;;;;;6.10;5.60;;;18.30;57.50;;;;;;5001318;28;20533;-66
2023/06/13 00:29:14;;;;;;;6.13;5.63;;;18.20;57.70;;;;;;4979983;28;20239;-67
2023/06/13 00:31:40;;;;;;;6.10;5.60;;;18.10;58.40;;;;;;4975708;28;20215;-66
2023/06/13 00:34:05;;;;;;;6.80;6.20;;;18.20;58.60;;;;;;4975784;28;20196;-66
2023/06/13 00:36:34;;;;;;;6.57;6.07;;;18.20;57.90;;;;;;4975625;28;20196;-66
2023/06/13 00:39:00;;;;;;;7.00;6.30;;;18.20;58.70;;;;;;4975320;28;20525;-66
2023/06/13 00:41:26;;;;;;;6.50;5.90;;;18.10;59.60;;;;;;4984010;28;20441;-67
2023/06/13 00:43:52;;;;;;;7.07;6.47;;;18.00;59.70;;;;;;4992140;28;20452;-67
2023/06/13 00:46:25;;;;;;;5.90;5.50;;;18.00;60.10;;;;;;4975438;28;20185;-66
2023/06/13 00:48:51;;;;;;;6.13;5.57;;;17.90;61.70;;;;;;4975133;28;20513;-67
2023/06/13 00:51:20;;;;;;;6.37;5.87;;;17.90;63.70;;;;;;4975455;28;20460;-66
2023/06/13 00:53:47;;;;;;;6.87;6.20;;;17.80;62.40;;;;;;4975346;28;20218;-66
2023/06/13 00:56:12;;;;;;;6.63;6.03;;;17.90;62.10;;;;;;4975197;28;20428;-66
2023/06/13 00:58:38;;;;;;;5.77;5.33;;;17.90;62.30;;;;;;4986480;28;20445;-66
2023/06/13 01:01:04;;;;;;;7.20;6.60;;;17.80;63.10;;;;;;4981940;28;20224;-66
2023/06/13 01:03:34;;;;;;;6.67;6.20;;;17.80;63.50;;;;;;4975262;28;20216;-66
2023/06/13 01:06:00;;;;;;;6.70;6.20;;;17.70;63.60;;;;;;4975167;28;20430;-66
2023/06/13 01:08:27;;;;;;;7.13;6.33;;;17.70;65.90;;;;;;4974913;28;20424;-66
2023/06/13 01:11:06;;;;;;;5.93;5.40;;;17.60;68.20;;;;;;4975006;28;20792;-66
2023/06/13 01:13:39;;;;;;;6.97;6.37;;;17.50;68.10;;;;;;4975051;28;20501;-67
2023/06/13 01:16:16;;;;;;;5.83;5.33;;;17.40;67.80;;;;;;5000217;28;20430;-67
2023/06/13 01:18:43;;;;;;;6.27;5.67;;;17.40;68.20;;;;;;5000601;28;20719;-66
2023/06/13 01:21:11;;;;;;;8.63;6.50;;;17.30;69.40;;;;;;4980777;28;20419;-67
2023/06/13 01:23:57;;;;;;;6.53;5.97;;;17.30;69.10;;;;;;4974756;28;20479;-67
2023/06/13 01:26:47;;;;;;;6.97;6.30;;;17.30;69.60;;;;;;4974813;28;20775;-66
2023/06/13 01:29:15;;;;;;;6.47;5.97;;;17.30;70.80;;;;;;4974560;28;20834;-66
2023/06/13 01:31:42;;;;;;;6.83;6.23;;;17.30;72.90;;;;;;4989431;28;20437;-66
2023/06/13 01:34:09;;;;;;;6.77;6.17;;;17.10;73.40;;;;;;4988656;28;20535;-67
2023/06/13 01:36:35;;;;;;;12.60;5.77;;;17.20;73.50;;;;;;4974509;28;20451;-66
2023/06/13 01:39:00;;;;;;;7.60;6.10;;;17.20;73.30;;;;;;4974219;28;20825;-67
2023/06/13 01:41:26;;;;;;;8.27;6.30;;;17.30;72.60;;;;;;4974465;28;20447;-66
2023/06/13 01:43:51;;;;;;;6.47;5.87;;;17.30;75.50;;;;;;4974471;28;20188;-67
2023/06/13 01:46:25;;;;;;;7.47;6.60;;;17.20;73.50;;;;;;4975299;28;20697;-67
2023/06/13 01:49:22;;;;;;;6.73;6.13;;;17.20;74.30;;;;;;4998019;28;20184;-66
2023/06/13 01:52:08;;;;;;;6.07;5.57;;;17.20;75.00;;;;;;4979192;28;20450;-67
2023/06/13 01:54:43;;;;;;;5.83;5.40;;;17.20;74.80;;;;;;4974223;28;20431;-67
2023/06/13 01:57:11;;;;;;;7.53;5.50;;;17.20;75.00;;;;;;4974028;28;20955;-66
2023/06/13 01:59:38;;;;;;;6.67;6.17;;;17.30;75.00;;;;;;4973929;28;20423;-69
2023/06/13 02:02:04;;;;;;;6.63;6.03;;;17.30;75.40;;;;;;4974492;28;20500;-67
2023/06/13 02:04:38;;;;;;;5.90;5.50;;;17.30;75.50;;;;;;4994863;28;21033;-69
2023/06/13 02:07:04;;;;;;;5.80;5.33;;;17.20;75.90;;;;;;4986648;28;20840;-66
2023/06/13 02:09:29;;;;;;;6.80;6.30;;;17.30;76.30;;;;;;4992913;28;20434;-68
2023/06/13 02:11:55;;;;;;;6.00;5.47;;;17.20;76.40;;;;;;4993357;28;20198;-68
2023/06/13 02:14:20;;;;;;;6.57;5.93;;;17.20;77.20;;;;;;4993443;28;20574;-68
2023/06/13 02:16:48;;;;;;;6.00;5.43;;;17.10;78.10;;;;;;4995987;28;20225;-68
2023/06/13 02:19:13;;;;;;;5.57;5.07;;;17.10;78.50;;;;;;4987089;28;20172;-68
2023/06/13 02:21:45;;;;;;;6.17;5.50;;;17.10;79.00;;;;;;4995972;28;20434;-68
2023/06/13 02:24:14;;;;;;;8.07;6.00;;;17.10;79.10;;;;;;4979388;28;20216;-68
2023/06/13 02:26:40;;;;;;;7.37;6.67;;;17.10;79.20;;;;;;4973914;28;20454;-68
2023/06/13 02:29:07;;;;;;;10.27;6.43;;;17.20;79.40;;;;;;4973368;28;20995;-68
2023/06/13 02:31:35;;;;;;;8.00;5.50;;;17.10;79.30;;;;;;4973620;28;21010;-68
2023/06/13 02:34:01;;;;;;;7.73;6.97;;;17.10;79.80;;;;;;4987842;28;20508;-68
2023/06/13 02:36:26;;;;;;;6.50;5.90;;;17.10;79.70;;;;;;4977260;28;20458;-68
2023/06/13 02:38:52;;;;;;;10.00;5.80;;;17.10;80.00;;;;;;4973191;28;20519;-68
2023/06/13 02:41:17;;;;;;;6.63;6.03;;;17.10;80.50;;;;;;4973462;28;20164;-68
2023/06/13 02:43:43;;;;;;;5.90;5.40;;;17.00;81.00;;;;;;4973586;28;20661;-68
2023/06/13 02:46:08;;;;;;;7.30;6.70;;;16.80;82.50;;;;;;4973425;28;20263;-68
2023/06/13 02:48:34;;;;;;;6.97;4.80;;;16.80;83.40;;;;;;4974479;28;20183;-68
2023/06/13 02:51:00;;;;;;;6.27;5.77;;;16.70;85.00;;;;;;4990623;28;20191;-66
2023/06/13 02:53:25;;;;;;;6.67;5.73;;;16.70;84.50;;;;;;4992190;28;20195;-68
2023/06/13 02:55:52;;;;;;;6.67;6.07;;;16.70;86.40;;;;;;4992803;28;20415;-68
2023/06/13 02:58:19;;;;;;;6.40;5.90;;;16.70;86.10;;;;;;4992325;28;20283;-68
2023/06/13 03:00:45;;;;;;;6.13;5.60;;;16.70;86.10;;;;;;4992698;28;20427;-68
2023/06/13 03:03:11;;;;;;;6.00;5.50;;;16.60;86.60;;;;;;4992503;28;20426;-66
2023/06/13 03:05:36;;;;;;;7.63;5.50;;;16.60;87.10;;;;;;4991478;28;20176;-68
2023/06/13 03:08:03;;;;;;;6.40;5.90;;;16.60;87.50;;;;;;4999556;28;20645;-66
2023/06/13 03:10:28;;;;;;;6.30;5.80;;;16.60;87.40;;;;;;4976576;28;20180;-68
2023/06/13 03:12:54;;;;;;;5.60;5.00;;;16.50;87.70;;;;;;4973259;28;20979;-67
2023/06/13 03:15:19;;;;;;;7.57;6.87;;;16.50;88.30;;;;;;4973177;28;20323;-68
2023/06/13 03:17:45;;;;;;;9.17;6.00;;;16.50;88.50;;;;;;4973059;28;20200;-67
2023/06/13 03:20:11;;;;;;;6.00;5.50;;;16.50;88.20;;;;;;4972857;28;20183;-68
2023/06/13 03:22:37;;;;;;;6.50;6.00;;;16.50;88.00;;;;;;4981467;28;20305;-68
2023/06/13 03:25:04;;;;;;;7.50;5.07;;;16.50;88.20;;;;;;4987860;28;20534;-68
2023/06/13 03:27:31;;;;;;;6.40;5.80;;;16.50;88.80;;;;;;4973159;28;20428;-68
2023/06/13 03:29:57;;;;;;;5.53;5.10;;;16.50;89.00;;;;;;4972901;28;20908;-68
2023/06/13 03:32:22;;;;;;;7.67;5.50;;;16.50;89.00;;;;;;4972953;28;20626;-66
2023/06/13 03:34:52;;;;;;;6.10;5.60;;;16.40;89.30;;;;;;4972926;28;20203;-67
2023/06/13 03:37:18;;;;;;;7.83;5.33;;;16.40;89.30;;;;;;4972747;28;20588;-66
2023/06/13 03:39:43;;;;;;;6.30;5.70;;;16.40;89.30;;;;;;4989097;28;20443;-67
2023/06/13 03:42:10;;;;;;;7.10;5.43;;;16.40;90.10;;;;;;4995134;28;20179;-67
2023/06/13 03:44:35;;;;;;;5.93;5.43;;;16.40;89.60;;;;;;4975456;28;20200;-66
2023/06/13 03:47:01;;;;;;;6.13;5.63;;;16.50;89.80;;;;;;4972890;28;20474;-68
2023/06/13 03:49:27;;;;;;;5.17;4.53;;;16.50;88.70;;;;;;4972484;28;20247;-68
2023/06/13 03:51:53;;;;;;;6.60;5.30;;;16.50;88.70;;;;;;4972701;28;20435;-68
2023/06/13 03:54:21;;;;;;;7.17;5.50;;;16.50;88.90;;;;;;4972484;28;20200;-68
2023/06/13 03:56:47;;;;;;;6.10;4.93;;;16.50;88.80;;;;;;4990021;28;20729;-67
2023/06/13 03:59:13;;;;;;;6.37;5.77;;;16.60;88.60;;;;;;4972376;28;20427;-67
2023/06/13 04:01:41;;;;;;;7.03;5.37;;;16.60;88.20;;;;;;4972700;28;20423;-68
2023/06/13 04:04:07;;;;;;;14.53;5.93;;;16.50;88.70;;;;;;4972901;28;20180;-67
2023/06/13 04:06:32;;;;;;;8.17;4.67;;;16.50;88.40;;;;;;4976168;28;20431;-67
2023/06/13 04:08:58;;;;;;;6.10;4.63;;;16.60;88.20;;;;;;4975939;28;20427;-67
2023/06/13 04:11:24;;;;;;;6.47;5.60;;;16.60;87.30;;;;;;4980632;28;20210;-67
2023/06/13 04:13:49;;;;;;;5.77;5.20;;;16.70;87.50;;;;;;4993605;28;20537;-67
2023/06/13 04:16:15;;;;;;;9.63;4.90;;;16.80;86.90;;;;;;4958475;28;20616;-68
2023/06/13 04:18:42;;;;;;;7.90;5.83;;;16.80;86.50;;;;;;4975554;28;20180;-67
2023/06/13 04:21:08;;;;;;;5.90;5.40;;;16.80;87.20;;;;;;4975778;28;20238;-68
2023/06/13 04:23:33;;;;;;;6.37;5.43;;;16.90;86.50;;;;;;4975540;28;20451;-68
2023/06/13 04:26:02;;;;;;;5.77;5.27;;;17.00;85.80;;;;;;4975717;28;20435;-68
2023/06/13 04:28:29;;;;;;;5.77;5.27;;;17.00;84.90;;;;;;4982836;28;20447;-67
2023/06/13 04:30:56;;;;;;;5.10;4.57;;;17.10;84.80;;;;;;4991779;28;20439;-67
2023/06/13 04:33:24;;;;;;;7.17;4.90;;;17.20;84.30;;;;;;4975433;28;20451;-67
2023/06/13 04:35:50;;;;;;;5.90;5.50;;;17.20;83.90;;;;;;4958119;28;20431;-67
2023/06/13 04:38:21;;;;;;;6.23;5.63;;;17.20;83.50;;;;;;4975333;28;20463;-67
2023/06/13 04:40:47;;;;;;;5.30;4.80;;;17.30;83.20;;;;;;4975590;28;20436;-68
2023/06/13 04:43:17;;;;;;;5.67;5.17;;;17.40;82.70;;;;;;4975428;28;20729;-67
2023/06/13 04:45:43;;;;;;;5.20;4.80;;;17.50;82.00;;;;;;4989289;28;20438;-67
2023/06/13 04:48:10;;;;;;;5.03;4.60;;;17.60;81.90;;;;;;4981510;28;20454;-68
2023/06/13 04:50:40;;;;;;;5.23;4.53;;;17.70;81.50;;;;;;4984221;28;20461;-68
2023/06/13 04:53:07;;;;;;;7.33;5.13;;;17.70;81.00;;;;;;4989861;28;20436;-67
2023/06/13 04:55:35;;;;;;;6.50;5.47;;;17.90;80.20;;;;;;4975148;28;20949;-67
2023/06/13 04:58:01;;;;;;;6.00;5.40;;;17.90;79.70;;;;;;4975058;28;20826;-67
2023/06/13 05:00:27;;;;;;;6.90;5.13;;;18.00;79.60;;;;;;4976097;28;20514;-68
2023/06/13 05:02:55;;;;;;;5.30;4.80;;;18.20;78.40;;;;;;4990963;28;20763;-68
2023/06/13 05:05:22;;;;;;;7.43;5.17;;;18.30;77.70;;;;;;4974975;28;20161;-68
2023/06/13 05:07:55;;;;;;;5.30;4.80;;;18.20;77.00;;;;;;4975036;28;20423;-68
2023/06/13 05:10:23;;;;;;;8.77;5.40;;;18.20;77.40;;;;;;4974742;28;20419;-68
2023/06/13 05:12:49;;;;;;;4.53;4.13;;;18.30;76.70;;;;;;4974786;28;20415;-67
2023/06/13 05:15:16;;;;;;;5.17;4.70;;;18.40;75.00;;;;;;4983612;28;20513;-68
2023/06/13 05:17:45;;;;;;;4.80;4.40;;;18.60;74.30;;;;;;4994720;28;20307;-68
2023/06/13 05:20:11;;;;;;;5.10;4.70;;;18.50;74.90;;;;;;4974510;28;20420;-68
2023/06/13 05:22:41;;;;;;;6.50;4.67;;;18.50;73.30;;;;;;4974957;28;20416;-68
2023/06/13 05:25:11;;;;;;;5.80;4.23;;;18.60;73.30;;;;;;4975207;28;20561;-67
2023/06/13 05:27:38;;;;;;;5.43;4.93;;;18.70;71.40;;;;;;4974693;28;20490;-67
2023/06/13 05:30:11;;;;;;;4.70;4.30;;;18.80;70.90;;;;;;4987424;28;20932;-67
2023/06/13 05:32:36;;;;;;;4.40;4.10;;;18.80;70.30;;;;;;4985250;28;20271;-66
2023/06/13 05:35:03;;;;;;;4.43;4.03;;;18.80;70.30;;;;;;4974595;28;20887;-66
2023/06/13 05:37:29;;;;;;;4.67;4.27;;;18.80;69.80;;;;;;4974468;28;20196;-67
2023/06/13 05:39:55;;;;;;;4.53;4.20;;;18.70;69.20;;;;;;4974170;28;20423;-67
2023/06/13 05:42:21;;;;;;;8.53;4.30;;;18.70;69.40;;;;;;4974330;28;20416;-67
2023/06/13 05:44:46;;;;;;;5.80;5.20;;;18.80;67.30;;;;;;4974250;28;20279;-67
2023/06/13 05:47:12;;;;;;;10.43;4.30;;;18.90;66.20;;;;;;5000437;28;20190;-66
2023/06/13 05:49:37;;;;;;;5.77;5.13;;;19.00;65.10;;;;;;4994815;28;20183;-67
2023/06/13 05:52:03;;;;;;;5.17;4.87;;;19.00;65.10;;;;;;4974107;28;20172;-66
2023/06/13 05:54:29;;;;;;;7.70;4.20;;;19.10;63.50;;;;;;4974018;28;20196;-66
2023/06/13 05:56:54;;;;;;;4.70;4.30;;;19.10;62.90;;;;;;4974001;28;20392;-67
2023/06/13 05:59:20;;;;;;;8.13;4.40;;;18.90;62.90;;;;;;4973911;28;20247;-67
2023/06/13 06:01:46;;;;;;;6.00;4.27;;;18.90;62.80;;;;;;4980716;28;20164;-67
2023/06/13 06:04:12;;;;;;;6.37;4.60;;;19.00;61.50;;;;;;4994756;28;20210;-67
2023/06/13 06:06:37;;;;;;;7.07;4.63;;;19.00;62.30;;;;;;4994837;28;20828;-67
2023/06/13 06:09:04;;;;;;;4.40;4.00;;;19.20;62.10;;;;;;4973648;28;20168;-67
2023/06/13 06:11:30;;;;;;;5.30;4.80;;;19.30;59.40;;;;;;4974151;28;20184;-68
2023/06/13 06:13:56;;;;;;;4.50;4.13;;;19.50;59.20;;;;;;4993143;28;20441;-67
2023/06/13 06:16:21;;;;;;;5.83;5.33;;;19.60;59.40;;;;;;4994200;28;20442;-67
2023/06/13 06:18:48;;;;;;;6.30;4.50;;;19.60;59.00;;;;;;4999678;28;20178;-67
2023/06/13 06:21:14;;;;;;;6.67;5.10;;;19.60;58.60;;;;;;4987415;28;20542;-67
2023/06/13 06:23:42;;;;;;;4.60;4.20;;;19.60;58.30;;;;;;4973477;28;20980;-68
2023/06/13 06:26:11;;;;;;;5.00;4.60;;;19.70;57.80;;;;;;4973643;28;20917;-68
2023/06/13 06:28:39;;;;;;;3.93;3.63;;;19.70;57.50;;;;;;4972666;28;20920;-67
2023/06/13 06:31:07;;;;;;;8.70;4.57;;;19.80;57.70;;;;;;4973398;28;20792;-68
2023/06/13 06:33:33;;;;;;;4.97;4.33;;;19.80;57.00;;;;;;4980955;28;20600;-68
2023/06/13 06:35:58;;;;;;;4.70;4.30;;;19.90;56.30;;;;;;4989087;28;20447;-67
2023/06/13 06:38:24;;;;;;;4.70;4.10;;;20.00;56.20;;;;;;4973026;28;20204;-67
2023/06/13 06:40:50;;;;;;;5.27;4.70;;;19.90;55.80;;;;;;4973406;28;20172;-67
2023/06/13 06:43:15;;;;;;;4.73;4.33;;;19.80;55.50;;;;;;4973399;28;20199;-68
2023/06/13 06:45:41;;;;;;;5.80;4.70;;;19.80;55.50;;;;;;4973307;28;20275;-67
2023/06/13 06:48:06;;;;;;;5.20;4.80;;;19.90;55.90;;;;;;4973155;28;20180;-67
2023/06/13 06:50:32;;;;;;;4.70;4.20;;;20.00;54.90;;;;;;4985217;28;20183;-68
2023/06/13 06:52:57;;;;;;;4.93;4.53;;;20.10;55.10;;;;;;4980974;28;20192;-67
2023/06/13 06:55:23;;;;;;;7.03;5.00;;;20.20;54.20;;;;;;4973543;28;20545;-67
2023/06/13 06:57:48;;;;;;;7.40;4.00;;;20.00;53.90;;;;;;4973262;28;20669;-67
2023/06/13 07:00:14;;;;;;;5.20;4.60;;;20.00;54.30;;;;;;4973062;28;20180;-68
2023/06/13 07:02:43;;;;;;;4.80;4.30;;;20.20;54.10;;;;;;4976205;28;20172;-67
2023/06/13 07:05:09;;;;;;;11.70;4.33;;;20.40;52.70;;;;;;4992404;28;20513;-67
2023/06/13 07:07:35;;;;;;;5.20;4.70;;;20.50;52.70;;;;;;4990946;28;20435;-67
2023/06/13 07:10:02;;;;;;;5.33;4.93;;;20.40;52.60;;;;;;4971008;28;20770;-68
2023/06/13 07:12:27;;;;;;;5.30;4.37;;;20.50;52.30;;;;;;4973021;28;20822;-68
2023/06/13 07:14:53;;;;;;;5.50;4.70;;;20.50;52.20;;;;;;4977565;28;20438;-68
2023/06/13 07:17:19;;;;;;;5.43;5.00;;;20.20;51.80;;;;;;4992144;28;20199;-68
2023/06/13 07:19:44;;;;;;;5.27;4.10;;;20.00;52.90;;;;;;4976992;28;20442;-68
2023/06/13 07:22:10;;;;;;;6.50;4.27;;;20.10;52.40;;;;;;4977244;28;20551;-68
2023/06/13 07:24:35;;;;;;;5.87;4.97;;;20.20;52.40;;;;;;4991323;28;20212;-68
2023/06/13 07:27:01;;;;;;;9.07;4.43;;;20.40;51.60;;;;;;4977610;28;20238;-68
2023/06/13 07:29:26;;;;;;;7.30;5.00;;;20.50;50.90;;;;;;4992053;28;20186;-68
2023/06/13 07:31:52;;;;;;;6.20;5.23;;;20.60;51.10;;;;;;4992317;28;20197;-68
2023/06/13 07:34:17;;;;;;;8.43;4.43;;;20.80;51.00;;;;;;4992041;28;20565;-69
2023/06/13 07:36:43;;;;;;;13.40;4.73;;;21.00;50.20;;;;;;4992066;28;20203;-66
2023/06/13 07:39:13;;;;;;;6.37;4.57;;;21.10;51.10;;;;;;4994337;28;20179;-66
2023/06/13 07:41:38;;;;;;;5.30;4.83;;;21.40;50.00;;;;;;4997652;28;20179;-69
2023/06/13 07:44:05;;;;;;;8.50;4.00;;;21.60;49.90;;;;;;4991398;28;20486;-66
2023/06/13 07:46:32;;;;;;;5.03;3.97;;;21.60;49.70;;;;;;4976536;28;20196;-69
2023/06/13 07:48:58;;;;;;;5.77;4.63;;;21.50;49.00;;;;;;4976245;28;20422;-67
2023/06/13 07:51:24;;;;;;;4.60;4.20;;;21.40;48.90;;;;;;4976496;28;20521;-67
2023/06/13 07:53:50;;;;;;;7.43;4.60;;;21.40;49.00;;;;;;4976445;28;20526;-67
2023/06/13 07:56:16;;;;;;;6.20;4.10;;;21.10;49.20;;;;;;4995144;28;20441;-67
2023/06/13 07:58:41;;;;;;;4.27;3.97;;;21.10;50.20;;;;;;4993527;28;20461;-67
2023/06/13 08:01:07;;;;;;;4.63;4.23;;;21.40;50.10;;;;;;4994731;28;20214;-67
2023/06/13 08:03:34;;;;;;;4.87;4.50;;;21.50;49.80;;;;;;4977476;28;20597;-66
2023/06/13 08:06:00;;;;;;;5.43;4.63;;;21.60;49.80;;;;;;4977502;28;20234;-66
2023/06/13 08:08:26;;;;;;;6.00;4.83;;;21.80;49.30;;;;;;4995044;28;20844;-66
2023/06/13 08:10:52;;;;;;;6.23;5.00;;;22.00;49.40;;;;;;4994813;28;20434;-67
2023/06/13 08:13:17;;;;;;;5.30;4.90;;;22.20;49.10;;;;;;4998198;28;20550;-66
2023/06/13 08:15:43;;;;;;;5.40;4.90;;;22.50;48.90;;;;;;4995572;28;20188;-67
2023/06/13 08:18:08;;;;;;;4.77;4.37;;;22.70;48.10;;;;;;4981937;28;20212;-67
2023/06/13 08:20:35;;;;;;;8.13;5.00;;;22.80;47.60;;;;;;4975667;28;20527;-67
2023/06/13 08:23:00;;;;;;;5.00;4.50;;;22.90;47.00;;;;;;4975879;28;20181;-68
2023/06/13 08:25:26;;;;;;;7.03;4.97;;;22.90;46.80;;;;;;4975732;28;20431;-67
2023/06/13 08:27:52;;;;;;;5.43;4.93;;;23.00;46.90;;;;;;4978946;28;20180;-66
2023/06/13 08:30:18;;;;;;;5.50;4.50;;;23.10;46.20;;;;;;5000816;28;20265;-67
2023/06/13 08:32:46;;;;;;;5.03;3.70;;;23.10;45.20;;;;;;4994567;28;20436;-67
2023/06/13 08:35:12;;;;;;;4.83;4.47;;;23.20;46.00;;;;;;4975539;28;20436;-67
2023/06/13 08:37:38;;;;;;;5.10;4.60;;;23.40;46.30;;;;;;4975774;28;20467;-67
2023/06/13 08:40:09;;;;;;;5.70;3.97;;;23.40;46.00;;;;;;4975213;28;20865;-67
2023/06/13 08:42:36;;;;;;;4.93;4.53;;;23.60;46.30;;;;;;4969332;28;20981;-67
2023/06/13 08:45:02;;;;;;;6.30;5.17;;;23.60;45.60;;;;;;4990531;28;20439;-67
2023/06/13 08:47:28;;;;;;;5.30;4.80;;;23.60;45.50;;;;;;4975482;28;20431;-67
2023/06/13 08:49:54;;;;;;;5.37;4.87;;;23.80;44.90;;;;;;4974359;28;20176;-66
2023/06/13 08:52:20;;;;;;;6.27;4.50;;;23.90;44.20;;;;;;4975358;28;20943;-67
2023/06/13 08:54:52;;;;;;;5.37;4.20;;;24.00;44.60;;;;;;4957980;28;20219;-67
2023/06/13 08:57:21;;;;;;;8.10;5.20;;;24.20;44.50;;;;;;4975172;28;20463;-68
2023/06/13 08:59:51;;;;;;;9.80;4.93;;;24.30;44.40;;;;;;4992014;28;20427;-67
2023/06/13 09:02:20;;;;;;;10.93;4.23;;;24.50;44.30;;;;;;4980437;28;20443;-67
2023/06/13 09:04:47;;;;;;;5.33;4.83;;;24.80;43.90;;;;;;4975186;28;20447;-67
2023/06/13 09:07:14;;;;;;;5.40;4.90;;;25.00;43.80;;;;;;4975120;28;20478;-67
2023/06/13 09:09:42;;;;;;;4.97;4.47;;;25.00;44.00;;;;;;4979177;28;20446;-68
2023/06/13 09:12:11;;;;;;;6.97;4.50;;;25.10;45.00;;;;;;4994011;28;20442;-67
2023/06/13 09:14:37;;;;;;;5.13;4.53;;;24.90;44.10;;;;;;4992962;28;20465;-69
2023/06/13 09:17:03;;;;;;;5.10;4.47;;;24.50;44.40;;;;;;4999792;28;20466;-64
2023/06/13 09:19:29;;;;;;;4.10;3.77;;;24.80;44.20;;;;;;4986336;28;20434;-64
2023/06/13 09:21:54;;;;;;;8.63;4.60;;;25.00;44.60;;;;;;4976030;28;20431;-65
2023/06/13 09:24:20;;;;;;;6.37;4.43;;;25.10;43.20;;;;;;4992473;28;20236;-68
2023/06/13 09:26:46;;;;;;;4.97;4.50;;;25.40;43.20;;;;;;4994091;28;20182;-69
2023/06/13 09:29:12;;;;;;;4.73;4.13;;;25.80;42.50;;;;;;4995274;28;20434;-69
2023/06/13 09:31:38;;;;;;;4.57;4.10;;;26.10;41.80;;;;;;4985375;28;20172;-68
2023/06/13 09:34:07;;;;;;;5.93;4.00;;;26.20;41.00;;;;;;4974685;28;20232;-68
2023/06/13 09:36:37;;;;;;;5.47;4.27;;;26.30;40.30;;;;;;4974670;28;20787;-68
2023/06/13 09:39:06;;;;;;;6.50;4.57;;;26.50;40.00;;;;;;4973960;28;20428;-68
2023/06/13 09:41:33;;;;;;;5.67;4.73;;;26.50;39.60;;;;;;4974566;28;20856;-68
2023/06/13 09:44:04;;;;;;;4.20;3.90;;;26.70;39.50;;;;;;4994236;28;20457;-67
2023/06/13 09:46:32;;;;;;;4.87;4.47;;;26.80;38.20;;;;;;4986080;28;20941;-68
2023/06/13 09:48:58;;;;;;;5.37;4.43;;;26.70;38.20;;;;;;4974008;28;20933;-68
2023/06/13 09:51:25;;;;;;;9.90;4.70;;;27.10;38.70;;;;;;4974425;28;20473;-68
2023/06/13 09:53:51;;;;;;;5.97;4.07;;;27.10;37.40;;;;;;4974244;28;20556;-68
2023/06/13 09:56:16;;;;;;;6.00;4.47;;;27.40;37.30;;;;;;4976533;28;20454;-68
2023/06/13 09:58:42;;;;;;;4.90;4.50;;;28.00;36.40;;;;;;4993564;28;20464;-68
2023/06/13 10:01:15;;;;;;;4.87;4.57;;;28.70;36.50;;;;;;4973913;28;20183;-68
2023/06/13 10:03:41;;;;;;;9.73;5.80;;;28.70;36.70;;;;;;4991519;28;20576;-67
2023/06/13 10:06:07;;;;;;;5.37;4.97;;;29.30;36.30;;;;;;4983042;28;20422;-68
2023/06/13 10:08:34;;;;;;;8.03;5.20;;;29.80;35.80;;;;;;4991908;28;20434;-68
2023/06/13 10:11:05;;;;;;;7.77;4.47;;;30.50;35.10;;;;;;4992424;28;20237;-68
2023/06/13 10:13:38;;;;;;;4.87;4.57;;;30.90;33.70;;;;;;4991533;28;20454;-68
2023/06/13 10:16:05;;;;;;;8.00;5.20;;;30.90;33.60;;;;;;4993417;28;20415;-68
2023/06/13 10:18:37;;;;;;;5.27;4.87;;;30.40;34.20;;;;;;4992776;28;20596;-68
2023/06/13 10:21:04;;;;;;;5.10;4.60;;;31.10;33.70;;;;;;4993018;28;20427;-68
2023/06/13 10:23:33;;;;;;;5.20;4.70;;;31.90;33.50;;;;;;4992746;28;20841;-67
2023/06/13 10:26:06;;;;;;;5.40;4.50;;;32.20;32.70;;;;;;4996029;28;20486;-67
2023/06/13 10:28:50;;;;;;;7.73;4.87;;;32.00;31.70;;;;;;4992792;28;20796;-68
2023/06/13 10:31:48;;;;;;;5.00;4.40;;;32.10;31.50;;;;;;4992625;28;20430;-67
2023/06/13 10:34:22;;;;;;;4.40;4.00;;;32.70;31.80;;;;;;4982163;28;20443;-67
2023/06/13 10:37:38;;;;;;;5.00;4.50;;;33.70;31.20;;;;;;4986294;28;20545;-66
2023/06/13 10:40:20;;;;;;;6.80;5.17;;;33.90;29.70;;;;;;4993524;28;20936;-68
2023/06/13 10:42:54;;;;;;;5.97;4.93;;;33.90;29.00;;;;;;4985288;28;20493;-66
2023/06/13 10:45:23;;;;;;;5.27;4.83;;;33.60;29.60;;;;;;4992737;28;20446;-66
2023/06/13 10:47:50;;;;;;;5.97;5.47;;;33.70;29.50;;;;;;4992643;28;20498;-67
2023/06/13 10:50:16;;;;;;;5.53;5.03;;;34.80;27.80;;;;;;4992654;28;20920;-66
2023/06/13 10:52:49;;;;;;;5.50;5.00;;;35.30;27.30;;;;;;4995190;28;20521;-67
2023/06/13 10:55:25;;;;;;;5.40;4.40;;;36.00;28.00;;;;;;4996063;28;20645;-67
2023/06/13 10:57:59;;;;;;;4.77;4.37;;;34.90;27.40;;;;;;4992227;28;20462;-66
2023/06/13 11:00:35;;;;;;;5.40;3.73;;;35.20;28.20;;;;;;4992081;28;20853;-66
2023/06/13 11:03:04;;;;;;;6.23;4.03;;;35.60;28.10;;;;;;4990896;28;20418;-67
2023/06/13 11:05:33;;;;;;;5.07;4.73;;;36.50;28.00;;;;;;4992431;28;20407;-66
2023/06/13 11:07:58;;;;;;;5.77;4.73;;;36.90;28.30;;;;;;4991660;28;20446;-66
2023/06/13 11:10:24;;;;;;;5.50;5.10;;;36.40;28.30;;;;;;4977211;28;20427;-67
2023/06/13 11:12:53;;;;;;;5.10;4.60;;;36.70;28.50;;;;;;4973114;28;20219;-67
2023/06/13 11:15:26;;;;;;;4.63;4.33;;;37.90;29.30;;;;;;4977275;28;20172;-67
2023/06/13 11:18:21;;;;;;;5.90;4.43;;;37.70;29.20;;;;;;4981905;28;20462;-68
2023/06/13 11:20:57;;;;;;;8.30;4.47;;;38.00;28.80;;;;;;4994740;28;20517;-67
2023/06/13 11:23:35;;;;;;;5.13;4.63;;;38.80;28.60;;;;;;4995494;28;20565;-68
2023/06/13 11:26:00;;;;;;;6.87;4.37;;;38.90;27.50;;;;;;4988840;28;20509;-68
2023/06/13 11:28:26;;;;;;;4.80;4.50;;;38.80;27.80;;;;;;4996230;28;20529;-68
2023/06/13 11:30:52;;;;;;;9.33;4.73;;;38.80;27.50;;;;;;4996311;28;20254;-68
2023/06/13 11:33:19;;;;;;;5.20;4.80;;;39.60;28.20;;;;;;4994843;28;20191;-68
2023/06/13 11:35:52;;;;;;;6.00;4.10;;;40.50;29.10;;;;;;4998815;28;20438;-68
2023/06/13 11:38:31;;;;;;;5.67;4.57;;;39.80;28.50;;;;;;4988788;28;20945;-68
2023/06/13 11:40:58;;;;;;;5.27;4.77;;;39.90;28.30;;;;;;4975502;28;20499;-68
2023/06/13 11:43:25;;;;;;;5.37;4.43;;;40.10;28.10;;;;;;4976540;28;20444;-67
2023/06/13 11:45:56;;;;;;;7.27;4.17;;;40.20;27.80;;;;;;4992851;28;20426;-68
2023/06/13 11:48:24;;;;;;;5.13;4.63;;;39.20;27.60;;;;;;4980840;28;20917;-68
2023/06/13 11:50:49;;;;;;;5.00;4.70;;;39.30;27.50;;;;;;4976630;28;20424;-68
2023/06/13 11:53:16;;;;;;;4.43;4.13;;;39.80;27.70;;;;;;4986296;28;20791;-68
2023/06/13 11:55:41;;;;;;;7.50;5.07;;;40.20;27.20;;;;;;4997331;28;20176;-64
2023/06/13 11:58:07;;;;;;;4.90;4.50;;;40.40;27.20;;;;;;4995661;28;20472;-65
2023/06/13 12:00:56;;;;;;;5.10;4.70;;;40.00;27.00;;;;;;4995618;28;20534;-65
2023/06/13 12:03:23;;;;;;;4.80;4.40;;;41.30;23.10;;;;;;5001087;28;20208;-64
2023/06/13 12:05:50;;;;;;;7.63;5.27;;;41.40;21.00;;;;;;4985381;28;20442;-64
2023/06/13 12:08:16;;;;;;;4.70;4.30;;;41.40;23.60;;;;;;4975962;28;20431;-64
2023/06/13 12:10:46;;;;;;;5.07;4.00;;;41.20;23.30;;;;;;4976075;28;20423;-64
2023/06/13 12:13:16;;;;;;;5.13;4.83;;;40.90;22.30;;;;;;4993882;28;20505;-65
2023/06/13 12:15:41;;;;;;;4.77;4.37;;;41.90;19.00;;;;;;4986005;28;20424;-65
2023/06/13 12:18:07;;;;;;;4.33;3.93;;;42.40;18.80;;;;;;4975924;28;20459;-65
2023/06/13 12:20:46;;;;;;;6.07;5.57;;;41.70;18.60;;;;;;4975826;28;20208;-68
2023/06/13 12:23:12;;;;;;;5.57;5.07;;;41.50;18.60;;;;;;4987982;28;20208;-68
2023/06/13 12:25:39;;;;;;;4.83;4.40;;;40.60;18.70;;;;;;4984727;28;20946;-68
2023/06/13 12:28:05;;;;;;;5.60;5.10;;;40.70;18.90;;;;;;4995610;28;20246;-68
2023/06/13 12:30:39;;;;;;;6.00;5.20;;;41.10;18.20;;;;;;4994997;28;20904;-68
2023/06/13 12:33:06;;;;;;;6.07;5.47;;;41.50;18.00;;;;;;5000278;28;20542;-68
2023/06/13 12:35:32;;;;;;;6.03;5.63;;;42.00;18.00;;;;;;4987094;28;20436;-67
2023/06/13 12:38:01;;;;;;;5.57;5.07;;;40.80;18.20;;;;;;4975678;28;20486;-67
2023/06/13 12:40:33;;;;;;;6.00;5.27;;;40.10;18.70;;;;;;4975441;28;20168;-68
2023/06/13 12:43:03;;;;;;;6.30;4.70;;;39.00;18.90;;;;;;4992989;28;20442;-67
2023/06/13 12:45:29;;;;;;;5.20;4.70;;;38.70;19.30;;;;;;4990392;28;20952;-68
2023/06/13 12:47:56;;;;;;;4.83;4.53;;;38.90;18.60;;;;;;4969722;28;20430;-67